sensor_id;sensor_type;location;lat;lon;timestamp;P1;durP1;ratioP1;P2;durP2;ratioP2
21036;SDS011;10677;50.942;4.028;2022-12-05T00:03:50;66.65;;;28.33;;
21036;SDS011;10677;50.942;4.028;2022-12-05T00:06:18;65.13;;;28.20;;
21036;SDS011;10677;50.942;4.028;2022-12-05T00:08:45;67.45;;;30.20;;
21036;SDS011;10677;50.942;4.028;2022-12-05T00:11:21;73.22;;;28.27;;
21036;SDS011;10677;50.942;4.028;2022-12-05T00:13:48;70.30;;;28.48;;
21036;SDS011;10677;50.942;4.028;2022-12-05T00:16:17;64.78;;;29.95;;
21036;SDS011;10677;50.942;4.028;2022-12-05T00:18:44;69.43;;;28.05;;
21036;SDS011;10677;50.942;4.028;2022-12-05T00:21:13;70.55;;;28.33;;
21036;SDS011;10677;50.942;4.028;2022-12-05T00:23:40;62.13;;;28.55;;
21036;SDS011;10677;50.942;4.028;2022-12-05T00:26:06;69.50;;;28.02;;
21036;SDS011;10677;50.942;4.028;2022-12-05T00:28:33;60.55;;;25.20;;
21036;SDS011;10677;50.942;4.028;2022-12-05T00:31:03;66.85;;;26.45;;
21036;SDS011;10677;50.942;4.028;2022-12-05T00:33:33;68.72;;;27.00;;
21036;SDS011;10677;50.942;4.028;2022-12-05T00:36:06;75.03;;;28.35;;
21036;SDS011;10677;50.942;4.028;2022-12-05T00:38:38;70.20;;;27.23;;
21036;SDS011;10677;50.942;4.028;2022-12-05T00:41:08;67.47;;;26.63;;
21036;SDS011;10677;50.942;4.028;2022-12-05T00:43:36;67.00;;;26.05;;
21036;SDS011;10677;50.942;4.028;2022-12-05T00:46:02;68.18;;;27.85;;
21036;SDS011;10677;50.942;4.028;2022-12-05T00:48:30;65.47;;;26.15;;
21036;SDS011;10677;50.942;4.028;2022-12-05T00:51:03;68.30;;;25.90;;
21036;SDS011;10677;50.942;4.028;2022-12-05T00:53:31;71.20;;;28.13;;
21036;SDS011;10677;50.942;4.028;2022-12-05T00:56:01;73.00;;;27.55;;
21036;SDS011;10677;50.942;4.028;2022-12-05T00:58:28;72.43;;;28.42;;
21036;SDS011;10677;50.942;4.028;2022-12-05T01:00:53;69.00;;;27.95;;
21036;SDS011;10677;50.942;4.028;2022-12-05T01:03:19;69.65;;;27.48;;
21036;SDS011;10677;50.942;4.028;2022-12-05T01:05:45;79.30;;;28.17;;
21036;SDS011;10677;50.942;4.028;2022-12-05T01:08:10;79.20;;;27.27;;
21036;SDS011;10677;50.942;4.028;2022-12-05T01:10:36;67.63;;;27.27;;
21036;SDS011;10677;50.942;4.028;2022-12-05T01:13:01;79.00;;;29.00;;
21036;SDS011;10677;50.942;4.028;2022-12-05T01:15:27;73.80;;;27.88;;
21036;SDS011;10677;50.942;4.028;2022-12-05T01:17:53;69.47;;;26.58;;
21036;SDS011;10677;50.942;4.028;2022-12-05T01:20:18;78.00;;;27.42;;
21036;SDS011;10677;50.942;4.028;2022-12-05T01:22:44;69.05;;;27.20;;
21036;SDS011;10677;50.942;4.028;2022-12-05T01:25:09;74.32;;;27.48;;
21036;SDS011;10677;50.942;4.028;2022-12-05T01:27:35;68.03;;;28.58;;
21036;SDS011;10677;50.942;4.028;2022-12-05T01:30:01;79.63;;;28.67;;
21036;SDS011;10677;50.942;4.028;2022-12-05T01:32:28;76.03;;;28.98;;
21036;SDS011;10677;50.942;4.028;2022-12-05T01:34:53;78.28;;;29.95;;
21036;SDS011;10677;50.942;4.028;2022-12-05T01:37:19;72.50;;;29.88;;
21036;SDS011;10677;50.942;4.028;2022-12-05T01:39:45;65.18;;;26.02;;
21036;SDS011;10677;50.942;4.028;2022-12-05T01:42:12;68.22;;;28.90;;
21036;SDS011;10677;50.942;4.028;2022-12-05T01:47:03;64.13;;;27.33;;
21036;SDS011;10677;50.942;4.028;2022-12-05T01:49:30;73.70;;;28.38;;
21036;SDS011;10677;50.942;4.028;2022-12-05T01:52:09;68.32;;;27.65;;
21036;SDS011;10677;50.942;4.028;2022-12-05T01:54:43;66.50;;;26.08;;
21036;SDS011;10677;50.942;4.028;2022-12-05T01:57:10;68.85;;;28.10;;
21036;SDS011;10677;50.942;4.028;2022-12-05T01:59:39;68.55;;;28.23;;
21036;SDS011;10677;50.942;4.028;2022-12-05T02:02:08;74.40;;;28.45;;
21036;SDS011;10677;50.942;4.028;2022-12-05T02:04:36;67.18;;;27.42;;
21036;SDS011;10677;50.942;4.028;2022-12-05T02:07:08;71.18;;;27.33;;
21036;SDS011;10677;50.942;4.028;2022-12-05T02:09:33;72.75;;;28.20;;
21036;SDS011;10677;50.942;4.028;2022-12-05T02:12:00;72.38;;;27.95;;
21036;SDS011;10677;50.942;4.028;2022-12-05T02:17:22;68.75;;;27.05;;
21036;SDS011;10677;50.942;4.028;2022-12-05T02:20:23;72.88;;;27.67;;
21036;SDS011;10677;50.942;4.028;2022-12-05T02:34:26;72.43;;;28.63;;
21036;SDS011;10677;50.942;4.028;2022-12-05T02:37:04;72.60;;;29.35;;
21036;SDS011;10677;50.942;4.028;2022-12-05T02:39:51;68.03;;;27.70;;
21036;SDS011;10677;50.942;4.028;2022-12-05T02:44:58;75.30;;;29.55;;
21036;SDS011;10677;50.942;4.028;2022-12-05T02:47:48;67.07;;;28.52;;
21036;SDS011;10677;50.942;4.028;2022-12-05T02:50:23;68.75;;;28.15;;
21036;SDS011;10677;50.942;4.028;2022-12-05T02:52:53;70.60;;;27.83;;
21036;SDS011;10677;50.942;4.028;2022-12-05T02:55:22;59.65;;;27.48;;
21036;SDS011;10677;50.942;4.028;2022-12-05T02:57:52;62.60;;;26.98;;
21036;SDS011;10677;50.942;4.028;2022-12-05T03:00:21;65.63;;;27.63;;
21036;SDS011;10677;50.942;4.028;2022-12-05T03:02:46;68.90;;;28.48;;
21036;SDS011;10677;50.942;4.028;2022-12-05T03:08:04;62.38;;;25.83;;
21036;SDS011;10677;50.942;4.028;2022-12-05T03:10:34;68.13;;;27.83;;
21036;SDS011;10677;50.942;4.028;2022-12-05T03:13:11;69.40;;;28.42;;
21036;SDS011;10677;50.942;4.028;2022-12-05T03:15:44;60.63;;;26.35;;
21036;SDS011;10677;50.942;4.028;2022-12-05T03:20:59;56.25;;;25.77;;
21036;SDS011;10677;50.942;4.028;2022-12-05T03:23:33;60.80;;;26.02;;
21036;SDS011;10677;50.942;4.028;2022-12-05T03:26:07;58.13;;;24.95;;
21036;SDS011;10677;50.942;4.028;2022-12-05T03:28:53;66.43;;;26.45;;
21036;SDS011;10677;50.942;4.028;2022-12-05T03:31:33;60.15;;;26.95;;
21036;SDS011;10677;50.942;4.028;2022-12-05T03:34:36;57.55;;;24.65;;
21036;SDS011;10677;50.942;4.028;2022-12-05T03:37:08;56.35;;;24.80;;
21036;SDS011;10677;50.942;4.028;2022-12-05T03:39:40;59.05;;;24.40;;
21036;SDS011;10677;50.942;4.028;2022-12-05T03:42:12;51.40;;;23.85;;
21036;SDS011;10677;50.942;4.028;2022-12-05T03:44:46;53.92;;;23.98;;
21036;SDS011;10677;50.942;4.028;2022-12-05T03:47:31;57.92;;;24.45;;
21036;SDS011;10677;50.942;4.028;2022-12-05T03:50:14;56.90;;;23.92;;
21036;SDS011;10677;50.942;4.028;2022-12-05T03:52:53;48.35;;;23.15;;
21036;SDS011;10677;50.942;4.028;2022-12-05T03:55:34;51.92;;;24.08;;
21036;SDS011;10677;50.942;4.028;2022-12-05T03:58:11;51.05;;;23.98;;
21036;SDS011;10677;50.942;4.028;2022-12-05T04:00:42;53.30;;;24.23;;
21036;SDS011;10677;50.942;4.028;2022-12-05T04:03:15;51.75;;;23.45;;
21036;SDS011;10677;50.942;4.028;2022-12-05T04:05:51;50.38;;;23.20;;
21036;SDS011;10677;50.942;4.028;2022-12-05T04:08:24;51.83;;;23.65;;
21036;SDS011;10677;50.942;4.028;2022-12-05T04:10:54;51.83;;;23.20;;
21036;SDS011;10677;50.942;4.028;2022-12-05T04:13:26;53.45;;;22.38;;
21036;SDS011;10677;50.942;4.028;2022-12-05T04:16:07;48.47;;;22.08;;
21036;SDS011;10677;50.942;4.028;2022-12-05T04:19:18;52.15;;;22.30;;
21036;SDS011;10677;50.942;4.028;2022-12-05T04:21:48;48.70;;;21.77;;
21036;SDS011;10677;50.942;4.028;2022-12-05T04:24:17;52.42;;;23.23;;
21036;SDS011;10677;50.942;4.028;2022-12-05T04:27:15;50.05;;;21.83;;
21036;SDS011;10677;50.942;4.028;2022-12-05T04:29:52;48.97;;;21.98;;
21036;SDS011;10677;50.942;4.028;2022-12-05T04:32:44;56.42;;;24.10;;
21036;SDS011;10677;50.942;4.028;2022-12-05T04:35:22;45.05;;;21.52;;
21036;SDS011;10677;50.942;4.028;2022-12-05T04:37:57;52.60;;;21.77;;
21036;SDS011;10677;50.942;4.028;2022-12-05T04:40:37;48.83;;;21.70;;
21036;SDS011;10677;50.942;4.028;2022-12-05T04:43:15;51.20;;;22.00;;
21036;SDS011;10677;50.942;4.028;2022-12-05T04:45:42;52.90;;;22.80;;
21036;SDS011;10677;50.942;4.028;2022-12-05T04:48:10;47.63;;;22.83;;
21036;SDS011;10677;50.942;4.028;2022-12-05T04:50:39;52.38;;;24.48;;
21036;SDS011;10677;50.942;4.028;2022-12-05T04:53:06;54.67;;;24.10;;
21036;SDS011;10677;50.942;4.028;2022-12-05T04:55:35;47.83;;;22.83;;
21036;SDS011;10677;50.942;4.028;2022-12-05T04:58:17;46.58;;;21.17;;
21036;SDS011;10677;50.942;4.028;2022-12-05T05:03:18;45.67;;;22.60;;
21036;SDS011;10677;50.942;4.028;2022-12-05T05:05:50;46.28;;;21.85;;
21036;SDS011;10677;50.942;4.028;2022-12-05T05:08:20;46.97;;;23.50;;
21036;SDS011;10677;50.942;4.028;2022-12-05T05:10:53;55.83;;;23.67;;
21036;SDS011;10677;50.942;4.028;2022-12-05T05:13:39;53.80;;;23.20;;
21036;SDS011;10677;50.942;4.028;2022-12-05T05:16:05;55.50;;;24.35;;
21036;SDS011;10677;50.942;4.028;2022-12-05T05:18:31;58.35;;;24.80;;
21036;SDS011;10677;50.942;4.028;2022-12-05T05:20:57;52.30;;;23.95;;
21036;SDS011;10677;50.942;4.028;2022-12-05T05:23:23;51.13;;;24.38;;
21036;SDS011;10677;50.942;4.028;2022-12-05T05:25:52;58.92;;;24.80;;
21036;SDS011;10677;50.942;4.028;2022-12-05T05:28:19;54.00;;;23.52;;
21036;SDS011;10677;50.942;4.028;2022-12-05T05:30:45;55.53;;;24.15;;
21036;SDS011;10677;50.942;4.028;2022-12-05T05:33:11;53.90;;;25.13;;
21036;SDS011;10677;50.942;4.028;2022-12-05T05:35:37;56.22;;;24.65;;
21036;SDS011;10677;50.942;4.028;2022-12-05T05:38:02;60.00;;;24.42;;
21036;SDS011;10677;50.942;4.028;2022-12-05T05:40:28;56.80;;;24.80;;
21036;SDS011;10677;50.942;4.028;2022-12-05T05:42:54;60.22;;;25.65;;
21036;SDS011;10677;50.942;4.028;2022-12-05T05:45:20;58.80;;;25.50;;
21036;SDS011;10677;50.942;4.028;2022-12-05T05:47:49;66.03;;;25.73;;
21036;SDS011;10677;50.942;4.028;2022-12-05T05:50:14;57.58;;;25.38;;
21036;SDS011;10677;50.942;4.028;2022-12-05T05:52:40;58.80;;;26.85;;
21036;SDS011;10677;50.942;4.028;2022-12-05T05:55:06;57.70;;;25.40;;
21036;SDS011;10677;50.942;4.028;2022-12-05T05:57:33;51.28;;;24.45;;
21036;SDS011;10677;50.942;4.028;2022-12-05T05:59:59;62.13;;;26.00;;
21036;SDS011;10677;50.942;4.028;2022-12-05T06:02:25;56.90;;;25.73;;
21036;SDS011;10677;50.942;4.028;2022-12-05T06:04:55;54.90;;;24.55;;
21036;SDS011;10677;50.942;4.028;2022-12-05T06:07:20;55.58;;;26.17;;
21036;SDS011;10677;50.942;4.028;2022-12-05T06:09:46;55.50;;;25.10;;
21036;SDS011;10677;50.942;4.028;2022-12-05T06:12:12;53.25;;;24.90;;
21036;SDS011;10677;50.942;4.028;2022-12-05T06:14:37;56.70;;;25.30;;
21036;SDS011;10677;50.942;4.028;2022-12-05T06:17:03;52.25;;;25.35;;
21036;SDS011;10677;50.942;4.028;2022-12-05T06:19:29;63.53;;;26.98;;
21036;SDS011;10677;50.942;4.028;2022-12-05T06:21:54;58.90;;;25.73;;
21036;SDS011;10677;50.942;4.028;2022-12-05T06:24:20;59.92;;;26.50;;
21036;SDS011;10677;50.942;4.028;2022-12-05T06:26:45;52.35;;;24.77;;
21036;SDS011;10677;50.942;4.028;2022-12-05T06:29:11;62.45;;;27.38;;
21036;SDS011;10677;50.942;4.028;2022-12-05T06:31:37;53.80;;;25.33;;
21036;SDS011;10677;50.942;4.028;2022-12-05T06:34:02;55.28;;;23.77;;
21036;SDS011;10677;50.942;4.028;2022-12-05T06:36:29;46.67;;;23.88;;
21036;SDS011;10677;50.942;4.028;2022-12-05T06:38:55;55.28;;;25.25;;
21036;SDS011;10677;50.942;4.028;2022-12-05T06:41:21;52.58;;;23.25;;
21036;SDS011;10677;50.942;4.028;2022-12-05T06:43:50;50.03;;;25.50;;
21036;SDS011;10677;50.942;4.028;2022-12-05T06:46:18;57.13;;;26.20;;
21036;SDS011;10677;50.942;4.028;2022-12-05T06:48:44;49.00;;;23.98;;
21036;SDS011;10677;50.942;4.028;2022-12-05T06:51:10;56.22;;;25.42;;
21036;SDS011;10677;50.942;4.028;2022-12-05T06:53:37;58.30;;;26.27;;
21036;SDS011;10677;50.942;4.028;2022-12-05T06:56:04;58.25;;;25.90;;
21036;SDS011;10677;50.942;4.028;2022-12-05T06:58:32;63.90;;;29.98;;
21036;SDS011;10677;50.942;4.028;2022-12-05T07:00:59;70.32;;;28.17;;
21036;SDS011;10677;50.942;4.028;2022-12-05T07:03:43;64.82;;;28.17;;
21036;SDS011;10677;50.942;4.028;2022-12-05T07:06:09;58.25;;;27.45;;
21036;SDS011;10677;50.942;4.028;2022-12-05T07:08:35;58.20;;;27.50;;
21036;SDS011;10677;50.942;4.028;2022-12-05T07:11:01;61.72;;;26.73;;
21036;SDS011;10677;50.942;4.028;2022-12-05T07:13:27;61.03;;;27.90;;
21036;SDS011;10677;50.942;4.028;2022-12-05T07:15:54;66.80;;;27.33;;
21036;SDS011;10677;50.942;4.028;2022-12-05T07:18:20;89.05;;;42.40;;
21036;SDS011;10677;50.942;4.028;2022-12-05T07:20:54;71.70;;;30.20;;
21036;SDS011;10677;50.942;4.028;2022-12-05T07:23:21;63.05;;;26.70;;
21036;SDS011;10677;50.942;4.028;2022-12-05T07:25:47;61.55;;;26.38;;
21036;SDS011;10677;50.942;4.028;2022-12-05T07:28:12;65.13;;;27.13;;
21036;SDS011;10677;50.942;4.028;2022-12-05T07:30:38;54.25;;;26.73;;
21036;SDS011;10677;50.942;4.028;2022-12-05T07:33:05;54.58;;;25.00;;
21036;SDS011;10677;50.942;4.028;2022-12-05T07:35:31;57.67;;;26.90;;
21036;SDS011;10677;50.942;4.028;2022-12-05T07:37:56;64.82;;;29.20;;
21036;SDS011;10677;50.942;4.028;2022-12-05T07:40:22;57.78;;;25.85;;
21036;SDS011;10677;50.942;4.028;2022-12-05T07:42:49;55.15;;;26.27;;
21036;SDS011;10677;50.942;4.028;2022-12-05T07:45:18;55.30;;;26.08;;
21036;SDS011;10677;50.942;4.028;2022-12-05T07:47:45;54.40;;;25.60;;
21036;SDS011;10677;50.942;4.028;2022-12-05T07:50:11;55.10;;;25.45;;
21036;SDS011;10677;50.942;4.028;2022-12-05T07:52:37;52.47;;;24.80;;
21036;SDS011;10677;50.942;4.028;2022-12-05T07:55:03;55.67;;;25.88;;
21036;SDS011;10677;50.942;4.028;2022-12-05T07:57:29;55.85;;;25.10;;
21036;SDS011;10677;50.942;4.028;2022-12-05T07:59:55;49.08;;;23.15;;
21036;SDS011;10677;50.942;4.028;2022-12-05T08:02:21;54.00;;;24.98;;
21036;SDS011;10677;50.942;4.028;2022-12-05T08:04:48;55.72;;;24.95;;
21036;SDS011;10677;50.942;4.028;2022-12-05T08:07:14;54.63;;;25.80;;
21036;SDS011;10677;50.942;4.028;2022-12-05T08:09:40;55.78;;;25.70;;
21036;SDS011;10677;50.942;4.028;2022-12-05T08:12:05;55.25;;;25.67;;
21036;SDS011;10677;50.942;4.028;2022-12-05T08:14:31;54.90;;;26.80;;
21036;SDS011;10677;50.942;4.028;2022-12-05T08:16:57;55.53;;;25.98;;
21036;SDS011;10677;50.942;4.028;2022-12-05T08:19:23;56.53;;;26.17;;
21036;SDS011;10677;50.942;4.028;2022-12-05T08:21:49;53.72;;;25.85;;
21036;SDS011;10677;50.942;4.028;2022-12-05T08:24:16;64.05;;;27.05;;
21036;SDS011;10677;50.942;4.028;2022-12-05T08:26:43;57.95;;;26.70;;
21036;SDS011;10677;50.942;4.028;2022-12-05T08:29:11;61.03;;;27.50;;
21036;SDS011;10677;50.942;4.028;2022-12-05T08:31:39;61.28;;;26.63;;
21036;SDS011;10677;50.942;4.028;2022-12-05T08:34:13;51.88;;;24.77;;
21036;SDS011;10677;50.942;4.028;2022-12-05T08:36:41;53.47;;;25.98;;
21036;SDS011;10677;50.942;4.028;2022-12-05T08:39:09;58.05;;;26.80;;
21036;SDS011;10677;50.942;4.028;2022-12-05T08:41:38;58.10;;;26.42;;
21036;SDS011;10677;50.942;4.028;2022-12-05T08:44:05;54.38;;;26.65;;
21036;SDS011;10677;50.942;4.028;2022-12-05T08:46:33;59.72;;;27.38;;
21036;SDS011;10677;50.942;4.028;2022-12-05T08:49:00;55.85;;;27.15;;
21036;SDS011;10677;50.942;4.028;2022-12-05T08:51:27;57.03;;;27.95;;
21036;SDS011;10677;50.942;4.028;2022-12-05T08:53:53;57.92;;;28.77;;
21036;SDS011;10677;50.942;4.028;2022-12-05T08:56:20;55.88;;;25.27;;
21036;SDS011;10677;50.942;4.028;2022-12-05T08:58:47;57.95;;;26.30;;
21036;SDS011;10677;50.942;4.028;2022-12-05T09:01:17;54.53;;;26.38;;
21036;SDS011;10677;50.942;4.028;2022-12-05T09:03:45;62.88;;;27.65;;
21036;SDS011;10677;50.942;4.028;2022-12-05T09:08:57;65.90;;;29.80;;
21036;SDS011;10677;50.942;4.028;2022-12-05T09:11:29;68.57;;;29.88;;
21036;SDS011;10677;50.942;4.028;2022-12-05T09:13:58;56.17;;;28.52;;
21036;SDS011;10677;50.942;4.028;2022-12-05T09:16:29;55.08;;;26.25;;
21036;SDS011;10677;50.942;4.028;2022-12-05T09:18:57;53.33;;;26.45;;
21036;SDS011;10677;50.942;4.028;2022-12-05T09:21:24;54.17;;;25.50;;
21036;SDS011;10677;50.942;4.028;2022-12-05T09:23:51;53.90;;;27.08;;
21036;SDS011;10677;50.942;4.028;2022-12-05T09:26:19;54.70;;;26.92;;
21036;SDS011;10677;50.942;4.028;2022-12-05T09:28:47;52.97;;;25.75;;
21036;SDS011;10677;50.942;4.028;2022-12-05T09:31:14;61.72;;;28.45;;
21036;SDS011;10677;50.942;4.028;2022-12-05T09:33:42;55.10;;;27.30;;
21036;SDS011;10677;50.942;4.028;2022-12-05T09:36:16;64.28;;;27.83;;
21036;SDS011;10677;50.942;4.028;2022-12-05T09:38:45;51.47;;;25.67;;
21036;SDS011;10677;50.942;4.028;2022-12-05T09:44:29;61.20;;;28.02;;
21036;SDS011;10677;50.942;4.028;2022-12-05T09:52:43;59.53;;;25.90;;
21036;SDS011;10677;50.942;4.028;2022-12-05T09:58:04;56.05;;;26.55;;
21036;SDS011;10677;50.942;4.028;2022-12-05T10:00:37;59.88;;;26.60;;
21036;SDS011;10677;50.942;4.028;2022-12-05T10:05:52;52.88;;;24.08;;
21036;SDS011;10677;50.942;4.028;2022-12-05T10:08:37;54.28;;;25.88;;
21036;SDS011;10677;50.942;4.028;2022-12-05T10:11:48;51.03;;;24.15;;
21036;SDS011;10677;50.942;4.028;2022-12-05T10:14:22;59.15;;;27.00;;
21036;SDS011;10677;50.942;4.028;2022-12-05T10:16:51;57.55;;;26.23;;
21036;SDS011;10677;50.942;4.028;2022-12-05T10:19:25;47.58;;;24.80;;
21036;SDS011;10677;50.942;4.028;2022-12-05T10:22:03;54.70;;;25.08;;
21036;SDS011;10677;50.942;4.028;2022-12-05T10:24:53;56.78;;;26.50;;
21036;SDS011;10677;50.942;4.028;2022-12-05T10:27:32;58.38;;;26.02;;
21036;SDS011;10677;50.942;4.028;2022-12-05T10:32:39;55.75;;;25.25;;
21036;SDS011;10677;50.942;4.028;2022-12-05T10:35:21;48.72;;;22.92;;
21036;SDS011;10677;50.942;4.028;2022-12-05T10:37:53;47.92;;;23.63;;
21036;SDS011;10677;50.942;4.028;2022-12-05T10:43:28;40.08;;;20.20;;
21036;SDS011;10677;50.942;4.028;2022-12-05T10:45:55;44.53;;;23.35;;
21036;SDS011;10677;50.942;4.028;2022-12-05T10:48:22;42.58;;;22.60;;
21036;SDS011;10677;50.942;4.028;2022-12-05T10:50:53;44.60;;;22.55;;
21036;SDS011;10677;50.942;4.028;2022-12-05T10:53:23;39.13;;;21.02;;
21036;SDS011;10677;50.942;4.028;2022-12-05T10:55:51;40.20;;;20.92;;
21036;SDS011;10677;50.942;4.028;2022-12-05T10:58:26;74.28;;;38.70;;
21036;SDS011;10677;50.942;4.028;2022-12-05T11:00:57;50.70;;;27.95;;
21036;SDS011;10677;50.942;4.028;2022-12-05T11:03:33;56.08;;;28.10;;
21036;SDS011;10677;50.942;4.028;2022-12-05T11:06:17;39.03;;;20.50;;
21036;SDS011;10677;50.942;4.028;2022-12-05T11:08:50;37.25;;;20.33;;
21036;SDS011;10677;50.942;4.028;2022-12-05T11:11:22;35.20;;;19.52;;
21036;SDS011;10677;50.942;4.028;2022-12-05T11:13:53;35.78;;;18.67;;
21036;SDS011;10677;50.942;4.028;2022-12-05T11:16:23;38.63;;;20.75;;
21036;SDS011;10677;50.942;4.028;2022-12-05T11:18:50;40.78;;;21.10;;
21036;SDS011;10677;50.942;4.028;2022-12-05T11:21:17;36.33;;;18.83;;
21036;SDS011;10677;50.942;4.028;2022-12-05T11:23:44;40.58;;;21.83;;
21036;SDS011;10677;50.942;4.028;2022-12-05T11:29:01;32.40;;;18.30;;
21036;SDS011;10677;50.942;4.028;2022-12-05T11:31:29;36.47;;;19.00;;
21036;SDS011;10677;50.942;4.028;2022-12-05T11:36:44;44.13;;;22.50;;
21036;SDS011;10677;50.942;4.028;2022-12-05T11:39:21;37.30;;;20.33;;
21036;SDS011;10677;50.942;4.028;2022-12-05T11:44:21;40.25;;;22.42;;
21036;SDS011;10677;50.942;4.028;2022-12-05T12:00:42;35.95;;;20.00;;
21036;SDS011;10677;50.942;4.028;2022-12-05T12:06:37;38.40;;;20.05;;
21036;SDS011;10677;50.942;4.028;2022-12-05T12:11:36;35.92;;;20.10;;
21036;SDS011;10677;50.942;4.028;2022-12-05T12:17:20;37.85;;;20.38;;
21036;SDS011;10677;50.942;4.028;2022-12-05T12:23:10;35.35;;;19.48;;
21036;SDS011;10677;50.942;4.028;2022-12-05T12:37:46;36.10;;;20.95;;
21036;SDS011;10677;50.942;4.028;2022-12-05T12:45:39;41.13;;;21.80;;
21036;SDS011;10677;50.942;4.028;2022-12-05T12:48:31;37.63;;;19.48;;
21036;SDS011;10677;50.942;4.028;2022-12-05T12:51:13;36.72;;;20.02;;
21036;SDS011;10677;50.942;4.028;2022-12-05T12:54:02;37.83;;;20.30;;
21036;SDS011;10677;50.942;4.028;2022-12-05T12:56:50;36.63;;;20.67;;
21036;SDS011;10677;50.942;4.028;2022-12-05T13:02:28;39.08;;;21.55;;
21036;SDS011;10677;50.942;4.028;2022-12-05T13:08:01;42.08;;;21.38;;
21036;SDS011;10677;50.942;4.028;2022-12-05T13:10:45;43.05;;;22.27;;
21036;SDS011;10677;50.942;4.028;2022-12-05T13:16:20;37.70;;;19.80;;
21036;SDS011;10677;50.942;4.028;2022-12-05T13:18:56;33.28;;;19.70;;
21036;SDS011;10677;50.942;4.028;2022-12-05T13:21:22;36.28;;;19.58;;
21036;SDS011;10677;50.942;4.028;2022-12-05T13:23:51;31.58;;;19.15;;
21036;SDS011;10677;50.942;4.028;2022-12-05T13:26:20;37.88;;;20.40;;
21036;SDS011;10677;50.942;4.028;2022-12-05T13:28:57;35.97;;;20.05;;
21036;SDS011;10677;50.942;4.028;2022-12-05T13:31:38;34.28;;;19.13;;
21036;SDS011;10677;50.942;4.028;2022-12-05T13:34:26;35.15;;;19.75;;
21036;SDS011;10677;50.942;4.028;2022-12-05T13:36:52;31.95;;;18.05;;
21036;SDS011;10677;50.942;4.028;2022-12-05T13:39:37;32.42;;;18.80;;
21036;SDS011;10677;50.942;4.028;2022-12-05T13:42:22;30.45;;;18.27;;
21036;SDS011;10677;50.942;4.028;2022-12-05T13:53:05;31.63;;;17.27;;
21036;SDS011;10677;50.942;4.028;2022-12-05T13:56:00;27.70;;;16.52;;
21036;SDS011;10677;50.942;4.028;2022-12-05T14:09:02;27.27;;;16.83;;
21036;SDS011;10677;50.942;4.028;2022-12-05T14:15:21;31.10;;;16.60;;
21036;SDS011;10677;50.942;4.028;2022-12-05T14:22:58;31.17;;;18.20;;
21036;SDS011;10677;50.942;4.028;2022-12-05T14:28:39;32.13;;;17.33;;
21036;SDS011;10677;50.942;4.028;2022-12-05T14:34:03;37.75;;;19.67;;
21036;SDS011;10677;50.942;4.028;2022-12-05T14:36:53;38.10;;;19.48;;
21036;SDS011;10677;50.942;4.028;2022-12-05T14:39:21;41.63;;;20.85;;
21036;SDS011;10677;50.942;4.028;2022-12-05T14:47:50;37.33;;;20.58;;
21036;SDS011;10677;50.942;4.028;2022-12-05T14:50:44;38.65;;;21.20;;
21036;SDS011;10677;50.942;4.028;2022-12-05T14:53:22;40.63;;;21.58;;
21036;SDS011;10677;50.942;4.028;2022-12-05T14:55:57;40.15;;;21.02;;
21036;SDS011;10677;50.942;4.028;2022-12-05T14:58:50;38.20;;;21.35;;
21036;SDS011;10677;50.942;4.028;2022-12-05T15:07:06;38.30;;;20.92;;
21036;SDS011;10677;50.942;4.028;2022-12-05T15:12:12;39.83;;;22.67;;
21036;SDS011;10677;50.942;4.028;2022-12-05T15:14:42;42.55;;;22.45;;
21036;SDS011;10677;50.942;4.028;2022-12-05T15:17:30;46.00;;;22.80;;
21036;SDS011;10677;50.942;4.028;2022-12-05T15:26:04;51.67;;;26.05;;
21036;SDS011;10677;50.942;4.028;2022-12-05T15:28:39;48.20;;;24.27;;
21036;SDS011;10677;50.942;4.028;2022-12-05T15:31:05;50.90;;;24.73;;
21036;SDS011;10677;50.942;4.028;2022-12-05T15:33:35;45.63;;;25.30;;
21036;SDS011;10677;50.942;4.028;2022-12-05T15:36:13;49.42;;;25.17;;
21036;SDS011;10677;50.942;4.028;2022-12-05T15:38:39;47.25;;;23.83;;
21036;SDS011;10677;50.942;4.028;2022-12-05T15:41:09;43.95;;;24.27;;
21036;SDS011;10677;50.942;4.028;2022-12-05T15:43:41;42.65;;;23.70;;
21036;SDS011;10677;50.942;4.028;2022-12-05T15:46:19;46.20;;;23.10;;
21036;SDS011;10677;50.942;4.028;2022-12-05T15:48:48;44.70;;;24.13;;
21036;SDS011;10677;50.942;4.028;2022-12-05T15:51:17;42.97;;;22.75;;
21036;SDS011;10677;50.942;4.028;2022-12-05T15:54:12;43.13;;;21.95;;
21036;SDS011;10677;50.942;4.028;2022-12-05T15:56:52;40.40;;;22.02;;
21036;SDS011;10677;50.942;4.028;2022-12-05T15:59:32;44.78;;;22.90;;
21036;SDS011;10677;50.942;4.028;2022-12-05T16:02:39;40.38;;;23.13;;
21036;SDS011;10677;50.942;4.028;2022-12-05T16:05:03;41.17;;;22.00;;
21036;SDS011;10677;50.942;4.028;2022-12-05T16:07:30;39.95;;;22.75;;
21036;SDS011;10677;50.942;4.028;2022-12-05T16:09:56;40.72;;;23.00;;
21036;SDS011;10677;50.942;4.028;2022-12-05T16:12:30;41.38;;;22.58;;
21036;SDS011;10677;50.942;4.028;2022-12-05T16:15:02;43.63;;;22.95;;
21036;SDS011;10677;50.942;4.028;2022-12-05T16:17:52;42.28;;;22.67;;
21036;SDS011;10677;50.942;4.028;2022-12-05T16:22:53;40.55;;;22.95;;
21036;SDS011;10677;50.942;4.028;2022-12-05T16:25:25;48.33;;;24.80;;
21036;SDS011;10677;50.942;4.028;2022-12-05T16:30:32;44.00;;;24.08;;
21036;SDS011;10677;50.942;4.028;2022-12-05T16:33:03;43.38;;;22.60;;
21036;SDS011;10677;50.942;4.028;2022-12-05T16:35:41;41.00;;;21.80;;
21036;SDS011;10677;50.942;4.028;2022-12-05T16:38:13;40.60;;;23.08;;
21036;SDS011;10677;50.942;4.028;2022-12-05T16:48:28;47.38;;;24.92;;
21036;SDS011;10677;50.942;4.028;2022-12-05T16:53:52;40.90;;;24.10;;
21036;SDS011;10677;50.942;4.028;2022-12-05T16:56:26;38.05;;;22.52;;
21036;SDS011;10677;50.942;4.028;2022-12-05T16:58:55;47.83;;;25.27;;
21036;SDS011;10677;50.942;4.028;2022-12-05T17:01:22;50.55;;;25.85;;
21036;SDS011;10677;50.942;4.028;2022-12-05T17:03:50;44.10;;;25.77;;
21036;SDS011;10677;50.942;4.028;2022-12-05T17:06:17;43.53;;;25.52;;
21036;SDS011;10677;50.942;4.028;2022-12-05T17:08:45;43.33;;;24.58;;
21036;SDS011;10677;50.942;4.028;2022-12-05T17:11:15;47.85;;;26.30;;
21036;SDS011;10677;50.942;4.028;2022-12-05T17:13:44;42.63;;;25.45;;
21036;SDS011;10677;50.942;4.028;2022-12-05T17:16:12;41.90;;;23.95;;
21036;SDS011;10677;50.942;4.028;2022-12-05T17:18:38;38.72;;;21.77;;
21036;SDS011;10677;50.942;4.028;2022-12-05T17:21:04;41.67;;;21.80;;
21036;SDS011;10677;50.942;4.028;2022-12-05T17:23:30;35.10;;;20.70;;
21036;SDS011;10677;50.942;4.028;2022-12-05T17:25:56;38.10;;;22.35;;
21036;SDS011;10677;50.942;4.028;2022-12-05T17:28:23;36.80;;;21.65;;
21036;SDS011;10677;50.942;4.028;2022-12-05T17:30:49;35.13;;;20.88;;
21036;SDS011;10677;50.942;4.028;2022-12-05T17:33:16;34.10;;;20.23;;
21036;SDS011;10677;50.942;4.028;2022-12-05T17:35:43;33.40;;;20.20;;
21036;SDS011;10677;50.942;4.028;2022-12-05T17:38:10;35.15;;;20.17;;
21036;SDS011;10677;50.942;4.028;2022-12-05T17:40:39;30.75;;;18.88;;
21036;SDS011;10677;50.942;4.028;2022-12-05T17:43:05;33.17;;;20.27;;
21036;SDS011;10677;50.942;4.028;2022-12-05T17:45:31;34.83;;;20.30;;
21036;SDS011;10677;50.942;4.028;2022-12-05T17:47:59;33.63;;;19.38;;